Hovedside
METAR-TAF:

METAR-TAF

Lufthavner :

Skavsta lufthavn

Stockholm-Skavsta, Sverige

breddegrad: 58-47N, lengdegrad: 016-55E, høyde over havet: 43 m

Gjeldene værobservasjon

Denne rapporten ble laget for 42 minutter siden, klokken 12:20 UTC
Vind 5 kt fra Nordvest, skiftende mellom Vest og Nord
Temperatur 20°C
Luftfuktighet 60%
Trykk 1012 hPa
Sikt 10 km eller mer
Få skyer i en høyde av 3100 ft
Brutte skyer i en høyde av 5100 ft

METAR: ESKN 151220Z 31005KT 260V350 9999 FEW031 BKN051 20/12 Q1012

Tid: 15:02 (13:02 UTC)

Varsel

Denne rapporten ble laget for 1 time og 32 minutter siden, klokken 11:30 UTC
Varsel gyldig fra 15. klokken 12 UTC til 16. klokken 12 UTC
Vind 5 kt fra Vest-nordvest
Sikt 10 km eller mer
Brutte skyer i en høyde av 3500 ft
Blir
fra 16. klokken 10 UTC til 16. klokken 12 UTC
Vind 10 kt fra Sør

TAF: ESKN 151130Z 1512/1612 30005KT 9999 BKN035 BECMG 1610/1612 18010KT

Værobservasjoner og værvarsel for over 4000 flyplasser (METAR- og TAF-rapporter).

Tilgjengelige stasjoner er representert av de røde og gule prikkene på kartet.

Hold musepekeren over prikken for å se navnet på stasjonen.

Klikk så for å se værobservasjoner og -varsler.

For å forandre kartet kan du klikke på den grønne knappen med svart kryss for å zoome inn, på den grønne knappen med strek for å zoome ut, eller på de grønne pilene for å se tilstøtende kart.


METAR-TAF: